Time;durP1;ratioP1;P1;durP2;ratioP2;P2;SDS_P1;SDS_P2;PMS_P1;PMS_P2;Temp;Humidity;BMP_temperature;BMP_pressure;BME280_temperature;BME280_humidity;BME280_pressure;Samples;Min_cycle;Max_cycle;Signal;HPM_P1;HPM_P2
2022/06/21 00:01:16;;;;;;;1.48;0.85;;;;;;;11.74;100.00;98726.88;5051238;28;20028;-74
2022/06/21 00:03:43;;;;;;;1.92;1.00;;;;;;;11.71;100.00;98726.47;5065690;28;20032;-74
2022/06/21 00:06:12;;;;;;;1.02;0.93;;;;;;;11.67;100.00;98711.69;5048284;28;20135;-74
2022/06/21 00:08:37;;;;;;;;;;;;;;;11.60;100.00;98717.94;5058501;28;20017;-74
2022/06/21 00:11:04;;;;;;;1.27;0.93;;;;;;;11.54;100.00;98721.50;5047418;28;19919;-74
2022/06/21 00:13:32;;;;;;;1.40;1.02;;;;;;;11.58;100.00;98721.91;5051343;28;20032;-75
2022/06/21 00:16:01;;;;;;;1.23;0.93;;;;;;;11.52;100.00;98720.88;5049907;28;20062;-74
2022/06/21 00:18:30;;;;;;;1.88;0.90;;;;;;;11.59;100.00;98718.16;5061370;28;20025;-74
2022/06/21 00:20:55;;;;;;;3.13;0.90;;;;;;;11.55;100.00;98716.91;5048510;28;20028;-74
2022/06/21 00:23:25;;;;;;;1.90;1.23;;;;;;;11.50;100.00;98725.69;5062952;28;20032;-74
2022/06/21 00:25:50;;;;;;;;;;;;;;;11.43;100.00;98718.63;5045110;28;20016;-74
2022/06/21 00:28:18;;;;;;;3.78;1.05;;;;;;;11.37;100.00;98709.44;5050909;28;20302;-74
2022/06/21 00:30:44;;;;;;;3.00;1.02;;;;;;;11.45;100.00;98708.38;5064112;28;20050;-74
2022/06/21 00:33:18;;;;;;;3.25;1.13;;;;;;;11.53;100.00;98703.59;5049319;28;20119;-74
2022/06/21 00:35:48;;;;;;;2.35;1.00;;;;;;;11.45;100.00;98700.25;5049329;28;20035;-74
2022/06/21 00:38:26;;;;;;;2.70;1.30;;;;;;;11.49;100.00;98706.94;5047953;28;20193;-74
2022/06/21 00:40:54;;;;;;;1.57;1.00;;;;;;;11.44;100.00;98702.13;5047236;28;20376;-74
2022/06/21 00:43:28;;;;;;;1.85;1.00;;;;;;;11.42;100.00;98701.50;5046759;28;20876;-74
2022/06/21 00:45:54;;;;;;;1.15;0.80;;;;;;;11.44;100.00;98712.97;5063942;28;20028;-74
2022/06/21 00:48:39;;;;;;;2.22;0.95;;;;;;;11.35;100.00;98706.97;5051347;28;20495;-76
2022/06/21 00:51:09;;;;;;;1.67;1.00;;;;;;;11.33;100.00;98710.91;5045690;28;20020;-74
2022/06/21 00:53:43;;;;;;;2.17;1.10;;;;;;;11.29;100.00;98717.78;5059904;28;20115;-74
2022/06/21 00:56:34;;;;;;;4.88;1.00;;;;;;;11.25;100.00;98705.72;5050036;28;20043;-74
2022/06/21 00:59:21;;;;;;;2.78;1.17;;;;;;;11.15;100.00;98706.97;5049348;28;20038;-74
2022/06/21 01:01:48;;;;;;;2.53;0.82;;;;;;;11.14;100.00;98712.59;5050244;28;20017;-74
2022/06/21 01:04:21;;;;;;;1.20;0.90;;;;;;;11.14;100.00;98705.31;5048321;28;20059;-74
2022/06/21 01:06:50;;;;;;;2.85;1.23;;;;;;;11.11;100.00;98694.06;5049658;28;20039;-74
2022/06/21 01:09:36;;;;;;;3.38;0.80;;;;;;;11.02;100.00;98696.16;5050622;28;20036;-74
2022/06/21 01:12:23;;;;;;;2.17;1.00;;;;;;;11.09;100.00;98701.56;5047985;28;20440;-74
2022/06/21 01:15:23;;;;;;;1.55;0.95;;;;;;;11.04;100.00;98694.06;5064973;28;20021;-74
2022/06/21 01:17:54;;;;;;;3.88;0.82;;;;;;;11.07;100.00;98693.66;5006372;28;20051;-74
2022/06/21 01:20:22;;;;;;;3.47;0.98;;;;;;;11.15;100.00;98689.91;5067386;28;20058;-74
2022/06/21 01:23:19;;;;;;;0.90;0.80;;;;;;;11.16;100.00;98687.00;5048660;28;20020;-74
2022/06/21 01:25:44;;;;;;;2.50;1.00;;;;;;;11.15;100.00;98685.31;5067160;28;20074;-75
2022/06/21 01:28:11;;;;;;;1.60;1.00;;;;;;;11.10;100.00;98687.81;5054142;28;20108;-74
2022/06/21 01:30:37;;;;;;;1.70;0.98;;;;;;;11.06;100.00;98677.63;5057443;28;20028;-76
2022/06/21 01:33:04;;;;;;;5.65;1.10;;;;;;;11.01;100.00;98675.53;5049162;28;20031;-74
2022/06/21 01:35:39;;;;;;;2.13;0.88;;;;;;;11.05;100.00;98679.47;5050643;28;20074;-74
2022/06/21 01:38:08;;;;;;;1.42;1.05;;;;;;;11.13;100.00;98682.00;5050746;28;20024;-74
2022/06/21 01:40:39;;;;;;;4.57;1.50;;;;;;;11.05;100.00;98695.72;5066292;28;20025;-74
2022/06/21 01:43:08;;;;;;;1.38;1.10;;;;;;;10.96;100.00;98684.28;5051404;28;20068;-74
2022/06/21 01:45:48;;;;;;;3.13;1.42;;;;;;;10.89;100.00;98686.16;5051065;28;20028;-74
2022/06/21 01:48:13;;;;;;;4.88;1.40;;;;;;;10.85;100.00;98675.97;5053438;28;20036;-75
2022/06/21 01:50:41;;;;;;;1.90;1.20;;;;;;;10.74;100.00;98683.66;5062028;28;20025;-74
2022/06/21 01:53:08;;;;;;;1.55;1.10;;;;;;;10.86;100.00;98670.34;5042992;28;20064;-75
2022/06/21 01:55:47;;;;;;;3.10;1.30;;;;;;;10.72;100.00;98661.38;5049298;28;20036;-74
2022/06/21 01:58:18;;;;;;;2.33;1.35;;;;;;;10.64;100.00;98655.34;5050324;28;20024;-74
2022/06/21 02:00:58;;;;;;;2.13;1.10;;;;;;;10.44;100.00;98620.16;5047938;28;20021;-74
2022/06/21 02:03:30;;;;;;;2.88;1.42;;;;;;;10.73;100.00;98640.56;5043824;28;20078;-75
2022/06/21 02:06:01;;;;;;;3.17;1.23;;;;;;;10.73;100.00;98644.09;5050056;28;20117;-74
2022/06/21 02:08:36;;;;;;;2.10;1.10;;;;;;;10.71;100.00;98634.53;5048387;28;20024;-74
2022/06/21 02:11:07;;;;;;;2.60;1.30;;;;;;;10.59;100.00;98618.09;5095860;22;20143;-69
2022/06/21 02:13:37;;;;;;;1.42;1.10;;;;;;;10.78;100.00;98623.72;5086010;28;20020;-69
2022/06/21 02:16:15;;;;;;;2.55;1.40;;;;;;;10.75;100.00;98622.25;5091497;28;20453;-70
2022/06/21 02:18:46;;;;;;;2.85;1.45;;;;;;;10.67;100.00;98604.34;5086201;28;20074;-69
2022/06/21 02:21:21;;;;;;;2.33;1.60;;;;;;;10.63;100.00;98627.44;5080876;28;20055;-69
2022/06/21 02:23:51;;;;;;;2.63;1.90;;;;;;;10.59;100.00;98628.09;5080930;28;20024;-69
2022/06/21 02:26:17;;;;;;;3.33;1.30;;;;;;;10.51;100.00;98627.25;5086892;28;20062;-69
2022/06/21 02:28:43;;;;;;;3.55;1.63;;;;;;;10.55;100.00;98632.25;5086655;28;20024;-69
2022/06/21 02:31:09;;;;;;;3.50;1.27;;;;;;;10.52;100.00;98631.59;5085021;28;20020;-70
2022/06/21 02:33:36;;;;;;;2.70;1.40;;;;;;;10.40;100.00;98627.03;5087784;28;20059;-69
2022/06/21 02:36:16;;;;;;;4.05;1.60;;;;;;;10.35;100.00;98629.50;5088173;28;20031;-69
2022/06/21 02:38:46;;;;;;;2.25;1.20;;;;;;;10.19;100.00;98609.06;5089467;28;20028;-69
2022/06/21 02:41:13;;;;;;;1.35;1.10;;;;;;;10.35;100.00;98619.53;5084501;28;20477;-69
2022/06/21 02:43:47;;;;;;;1.27;1.13;;;;;;;10.32;100.00;98617.22;5098502;28;20031;-70
2022/06/21 02:46:18;;;;;;;2.50;1.63;;;;;;;10.40;100.00;98616.19;5088899;28;20038;-70
2022/06/21 02:48:49;;;;;;;2.53;1.30;;;;;;;10.48;100.00;98626.84;5086400;28;20031;-69
2022/06/21 02:51:23;;;;;;;2.28;1.30;;;;;;;10.42;100.00;98633.06;5089414;28;20036;-69
2022/06/21 02:54:01;;;;;;;4.88;1.40;;;;;;;10.43;100.00;98622.03;5085449;28;20141;-69
2022/06/21 02:56:36;;;;;;;3.05;1.42;;;;;;;10.26;100.00;98616.16;5085557;28;20423;-69
2022/06/21 02:59:03;;;;;;;3.55;1.52;;;;;;;10.51;100.00;98629.97;5071534;28;20035;-69
2022/06/21 03:01:53;;;;;;;3.35;1.50;;;;;;;10.42;100.00;98614.13;5085966;28;20020;-68
2022/06/21 03:04:22;;;;;;;2.30;1.42;;;;;;;10.47;100.00;98614.34;5085563;28;20438;-68
2022/06/21 03:06:49;;;;;;;2.60;1.73;;;;;;;10.42;100.00;98612.25;5082770;28;20024;-69
2022/06/21 03:09:17;;;;;;;4.80;1.60;;;;;;;10.40;100.00;98613.50;5084929;28;20532;-68
2022/06/21 03:11:46;;;;;;;3.10;1.40;;;;;;;10.46;100.00;98612.69;5086375;28;20077;-68
2022/06/21 03:14:16;;;;;;;4.75;1.65;;;;;;;10.39;100.00;98598.31;5087610;28;20036;-69
2022/06/21 03:16:43;;;;;;;3.08;1.20;;;;;;;10.43;100.00;98610.41;5087017;28;20385;-65
2022/06/21 03:19:21;;;;;;;2.75;1.40;;;;;;;10.37;100.00;98600.41;5080547;28;20020;-73
2022/06/21 03:21:47;;;;;;;5.13;1.70;;;;;;;10.34;100.00;98593.53;5088253;28;20120;-71
2022/06/21 03:24:18;;;;;;;2.80;1.60;;;;;;;10.25;100.00;98567.72;5093679;28;20052;-71
2022/06/21 03:27:00;;;;;;;4.43;2.00;;;;;;;10.29;100.00;98560.88;5082848;28;20020;-72
2022/06/21 03:29:28;;;;;;;8.95;2.30;;;;;;;10.50;100.00;98559.81;5091040;28;20532;-69
2022/06/21 03:31:54;;;;;;;4.28;1.90;;;;;;;10.50;100.00;98552.53;5086983;28;20023;-69
2022/06/21 03:34:23;;;;;;;2.60;2.00;;;;;;;10.74;100.00;98553.78;5086025;28;20024;-69
2022/06/21 03:36:50;;;;;;;3.45;1.70;;;;;;;10.62;100.00;98557.34;5085512;28;20020;-72
2022/06/21 03:39:19;;;;;;;2.40;1.70;;;;;;;10.43;100.00;98546.31;5083242;28;20435;-70
2022/06/21 03:41:46;;;;;;;;;;;;;;;10.40;100.00;98562.13;5093853;28;20023;-70
2022/06/21 03:44:23;;;;;;;6.75;2.00;;;;;;;10.48;100.00;98553.81;5085737;28;19908;-69
2022/06/21 03:46:57;;;;;;;3.28;1.92;;;;;;;10.60;100.00;98544.00;5089833;28;20027;-65
2022/06/21 03:49:34;;;;;;;6.82;1.77;;;;;;;10.79;100.00;98560.41;5082233;28;20020;-69
2022/06/21 03:52:04;;;;;;;2.17;1.73;;;;;;;11.02;100.00;98559.97;5084073;28;20032;-67
2022/06/21 03:54:49;;;;;;;2.10;1.65;;;;;;;10.85;100.00;98555.00;5085784;28;20089;-66
2022/06/21 03:57:21;;;;;;;4.15;1.67;;;;;;;10.93;100.00;98576.44;5088393;28;20103;-67
2022/06/21 03:59:59;;;;;;;3.15;1.90;;;;;;;10.88;100.00;98548.34;5085814;28;20057;-70
2022/06/21 04:02:59;;;;;;;3.83;1.38;;;;;;;11.03;100.00;98569.75;5088642;28;20388;-70
2022/06/21 04:05:44;;;;;;;5.50;2.05;;;;;;;11.02;100.00;98582.44;5093132;28;20555;-65
2022/06/21 04:08:23;;;;;;;3.05;1.60;;;;;;;11.11;100.00;98580.38;5087689;28;20040;-67
2022/06/21 04:11:18;;;;;;;;;;;;;;;11.37;100.00;98568.59;5088307;28;20061;-73
2022/06/21 04:13:54;;;;;;;2.58;1.55;;;;;;;11.57;100.00;98569.34;5075647;28;20300;-72
2022/06/21 04:16:37;;;;;;;3.20;1.17;;;;;;;12.02;100.00;98572.03;5079733;28;20023;-65
2022/06/21 04:19:11;;;;;;;3.53;1.67;;;;;;;12.25;100.00;98581.50;5072264;28;20027;-65
2022/06/21 04:22:11;;;;;;;3.60;1.73;;;;;;;12.37;100.00;98579.75;5085473;28;20043;-66
2022/06/21 04:24:53;;;;;;;5.13;1.52;;;;;;;12.55;100.00;98580.84;5018407;28;20033;-65
2022/06/21 04:27:29;;;;;;;4.63;1.33;;;;;;;12.70;100.00;98567.75;5075429;28;20105;-66
2022/06/21 04:30:03;;;;;;;4.28;1.58;;;;;;;12.92;100.00;98569.03;5085188;28;20377;-65
2022/06/21 04:32:41;;;;;;;4.32;1.30;;;;;;;13.16;100.00;98561.06;5081275;28;20064;-66
2022/06/21 04:35:18;;;;;;;2.05;1.30;;;;;;;13.38;100.00;98556.84;5079028;28;20409;-65
2022/06/21 04:37:49;;;;;;;4.07;1.17;;;;;;;13.59;100.00;98554.69;5087452;28;20046;-66
2022/06/21 04:40:26;;;;;;;2.75;1.35;;;;;;;13.71;95.65;98547.44;5074998;28;20473;-67
2022/06/21 04:43:08;;;;;;;3.72;1.15;;;;;;;14.07;88.08;98567.44;5087583;28;20477;-73
2022/06/21 04:45:45;;;;;;;3.78;1.48;;;;;;;14.28;89.71;98560.63;5082339;28;20454;-71
2022/06/21 04:48:29;;;;;;;2.42;1.17;;;;;;;14.46;90.47;98559.69;5082153;28;20033;-70
2022/06/21 04:51:01;;;;;;;3.00;1.10;;;;;;;14.74;89.60;98559.06;5084220;28;20051;-71
2022/06/21 04:53:49;;;;;;;2.08;1.20;;;;;;;15.02;86.30;98558.34;5081030;28;20056;-72
2022/06/21 04:56:35;;;;;;;3.92;1.42;;;;;;;15.06;82.28;98564.13;5080353;28;20073;-71
2022/06/21 04:59:02;;;;;;;2.60;1.27;;;;;;;15.29;82.35;98561.38;5081958;28;20081;-70
2022/06/21 05:01:30;;;;;;;4.47;1.50;;;;;;;15.71;82.98;98554.91;5081637;28;20052;-71
2022/06/21 05:04:12;;;;;;;4.60;1.27;;;;;;;15.82;79.52;98545.84;5080678;28;20024;-72
2022/06/21 05:06:39;;;;;;;4.40;1.20;;;;;;;16.15;78.42;98547.81;5089521;28;20036;-71
2022/06/21 05:09:05;;;;;;;2.70;1.15;;;;;;;16.25;72.76;98552.66;5081887;28;20020;-73
2022/06/21 05:11:31;;;;;;;6.70;1.40;;;;;;;16.42;70.67;98556.19;5084630;28;20515;-71
2022/06/21 05:13:59;;;;;;;4.82;1.45;;;;;;;16.76;67.83;98563.56;5077027;28;20111;-70
2022/06/21 05:16:26;;;;;;;2.50;1.20;;;;;;;16.95;65.49;98548.63;5079626;28;20035;-71
2022/06/21 05:19:14;;;;;;;3.90;1.38;;;;;;;16.99;64.28;98560.69;5079303;28;20128;-72
2022/06/21 05:21:45;;;;;;;5.38;1.23;;;;;;;16.89;65.85;98565.16;5080177;28;20527;-75
2022/06/21 05:24:11;;;;;;;5.38;1.40;;;;;;;16.94;65.51;98567.97;5079247;28;20405;-72
2022/06/21 05:26:45;;;;;;;2.35;1.52;;;;;;;16.72;64.76;98566.00;5071288;28;20039;-72
2022/06/21 05:29:49;;;;;;;3.10;1.20;;;;;;;16.51;66.61;98564.84;5080447;28;22505;-72
2022/06/21 05:32:19;;;;;;;4.20;1.20;;;;;;;16.57;67.05;98563.00;5085533;28;20111;-72
2022/06/21 05:34:52;;;;;;;3.58;1.17;;;;;;;16.77;64.63;98541.50;5087649;28;20085;-72
2022/06/21 05:37:36;;;;;;;3.83;1.35;;;;;;;16.89;61.48;98549.59;5082546;28;20099;-72
2022/06/21 05:40:16;;;;;;;2.38;1.10;;;;;;;17.24;61.53;98551.19;5078186;28;20032;-72
2022/06/21 05:42:41;;;;;;;4.45;1.33;;;;;;;17.69;57.41;98567.34;5089343;28;20103;-72
2022/06/21 05:45:14;;;;;;;2.80;1.23;;;;;;;17.72;57.46;98553.16;5082410;28;20099;-72
2022/06/21 05:47:43;;;;;;;3.45;1.25;;;;;;;17.90;56.87;98556.69;5082225;28;20028;-72
2022/06/21 05:50:18;;;;;;;6.60;1.27;;;;;;;18.26;56.26;98546.91;5081963;28;20020;-72
2022/06/21 05:52:48;;;;;;;5.78;1.30;;;;;;;18.34;54.78;98542.88;5082603;28;20034;-72
2022/06/21 05:55:28;;;;;;;3.75;0.93;;;;;;;18.65;53.23;98556.81;5078951;28;20081;-72
2022/06/21 05:58:00;;;;;;;4.53;1.17;;;;;;;18.61;51.80;98537.34;5079311;28;20115;-72
2022/06/21 06:00:42;;;;;;;4.40;1.27;;;;;;;18.61;51.89;98538.16;5087624;28;20066;-72
2022/06/21 06:03:14;;;;;;;3.28;1.10;;;;;;;18.83;51.81;98551.78;5092847;28;20177;-72
2022/06/21 06:05:41;;;;;;;2.67;1.30;;;;;;;19.02;51.11;98541.22;5093578;28;20024;-72
2022/06/21 06:08:31;;;;;;;2.83;1.15;;;;;;;19.15;51.17;98541.84;5090243;28;20081;-72
2022/06/21 06:11:00;;;;;;;3.83;1.17;;;;;;;19.38;49.64;98530.44;5088704;28;20485;-72
2022/06/21 06:13:31;;;;;;;2.67;1.20;;;;;;;19.66;50.74;98534.69;5091221;28;20042;-72
2022/06/21 06:16:01;;;;;;;4.03;1.10;;;;;;;20.27;48.11;98536.75;5088712;28;20055;-72
2022/06/21 06:18:30;;;;;;;5.65;1.30;;;;;;;20.07;48.97;98558.72;5086114;28;20032;-72
2022/06/21 06:21:06;;;;;;;3.08;1.45;;;;;;;20.50;47.33;98551.06;5091488;28;20030;-72
2022/06/21 06:23:43;;;;;;;2.05;0.98;;;;;;;20.45;47.53;98567.53;5087456;28;20056;-72
2022/06/21 06:26:19;;;;;;;4.15;1.10;;;;;;;20.64;46.68;98557.69;5089316;28;20106;-72
2022/06/21 06:28:57;;;;;;;1.75;0.93;;;;;;;20.75;46.18;98555.75;5081928;28;20486;-72
2022/06/21 06:31:35;;;;;;;3.28;1.20;;;;;;;20.45;47.21;98571.13;5089639;28;20385;-72
2022/06/21 06:34:08;;;;;;;3.65;1.05;;;;;;;20.77;47.22;98572.81;5090309;28;20031;-72
2022/06/21 06:36:37;;;;;;;4.03;1.15;;;;;;;20.99;46.32;98575.28;5086167;28;20441;-72
2022/06/21 06:39:20;;;;;;;4.20;1.10;;;;;;;20.72;46.09;98575.56;5091666;28;20043;-72
2022/06/21 06:42:03;;;;;;;3.00;1.10;;;;;;;21.11;45.90;98584.03;5088575;28;20137;-71
2022/06/21 06:44:38;;;;;;;3.63;1.02;;;;;;;21.62;45.12;98572.94;5083724;28;20024;-72
2022/06/21 06:47:13;;;;;;;3.88;0.90;;;;;;;21.78;44.27;98562.69;5087321;28;20032;-72
2022/06/21 06:49:52;;;;;;;5.07;1.25;;;;;;;21.74;44.44;98580.03;5080662;28;20095;-72
2022/06/21 06:52:29;;;;;;;;;;;;;;;21.58;44.95;98582.03;5092218;28;20051;-72
2022/06/21 06:55:17;;;;;;;7.22;1.48;;;;;;;21.35;45.31;98575.19;5088388;28;20010;-72
2022/06/21 06:57:57;;;;;;;3.37;0.90;;;;;;;21.64;45.27;98559.72;5093538;28;20035;-72
2022/06/21 07:00:28;;;;;;;3.20;1.00;;;;;;;22.37;43.69;98555.47;5088320;28;20045;-72
2022/06/21 07:03:25;;;;;;;4.45;0.90;;;;;;;22.97;42.64;98555.28;5091447;28;20027;-72
2022/06/21 07:06:04;;;;;;;1.50;0.90;;;;;;;23.17;41.82;98548.72;5075773;28;20047;-72
2022/06/21 07:08:43;;;;;;;1.90;0.90;;;;;;;24.30;39.99;98550.91;5084487;28;20031;-72
2022/06/21 07:11:18;;;;;;;3.70;0.95;;;;;;;25.25;38.30;98556.25;5085492;28;20436;-72
2022/06/21 07:13:44;;;;;;;2.75;1.05;;;;;;;26.97;35.56;98558.28;5081636;28;20029;-72
2022/06/21 07:16:14;;;;;;;3.67;1.00;;;;;;;27.71;34.29;98551.28;5085725;28;20036;-72
2022/06/21 07:18:46;;;;;;;1.90;0.95;;;;;;;28.61;32.50;98565.53;5087506;28;20113;-72
2022/06/21 07:21:11;;;;;;;3.97;1.05;;;;;;;29.13;31.42;98559.06;5082991;28;20052;-72
2022/06/21 07:23:36;;;;;;;2.65;0.90;;;;;;;29.12;31.98;98562.19;5085617;28;20077;-72
2022/06/21 07:26:09;;;;;;;2.35;1.00;;;;;;;29.91;30.96;98572.69;5086690;28;20020;-72
2022/06/21 07:28:44;;;;;;;4.43;1.13;;;;;;;29.75;30.05;98571.66;5094694;28;20090;-72
2022/06/21 07:31:36;;;;;;;1.67;0.90;;;;;;;30.43;30.42;98571.56;5093734;28;20015;-74
2022/06/21 07:34:10;;;;;;;6.32;0.90;;;;;;;30.89;29.53;98577.25;5081903;28;20485;-73
2022/06/21 07:36:43;;;;;;;2.97;0.93;;;;;;;30.76;29.36;98571.59;5085027;28;20032;-73
2022/06/21 07:39:17;;;;;;;5.68;1.13;;;;;;;30.60;29.69;98584.53;5081332;28;20020;-73
2022/06/21 07:41:48;;;;;;;2.00;0.77;;;;;;;30.92;29.97;98584.97;5087956;28;20168;-73
2022/06/21 07:44:21;;;;;;;2.58;0.80;;;;;;;30.01;30.19;98587.44;5088832;28;20058;-73
2022/06/21 07:46:52;;;;;;;2.95;0.95;;;;;;;28.47;32.97;98580.75;5091974;28;20078;-73
2022/06/21 07:49:35;;;;;;;2.63;0.93;;;;;;;27.90;33.04;98557.44;5080896;28;20027;-73
2022/06/21 07:52:06;;;;;;;6.90;0.85;;;;;;;27.32;35.20;98564.88;5084098;28;20020;-73
2022/06/21 07:54:37;;;;;;;2.30;1.17;;;;;;;26.43;36.34;98558.19;5079270;28;20111;-73
2022/06/21 07:57:12;;;;;;;2.85;0.88;;;;;;;26.30;35.68;98550.75;5078164;28;20684;-73
2022/06/21 07:59:46;;;;;;;5.18;1.30;;;;;;;25.16;37.54;98538.72;5080632;28;20085;-73
2022/06/21 08:06:41;;;;;;;1.58;1.05;;;;;;;26.11;36.61;98505.72;5085785;28;20019;-74
2022/06/21 08:08:18;;;;;;;4.60;1.00;;;;;;;25.78;37.78;98489.22;5087431;28;20098;-73
2022/06/21 08:11:24;;;;;;;1.45;0.82;;;;;;;24.81;38.95;98478.19;5391257;22;20047;-73
2022/06/21 08:13:49;;;;;;;4.05;1.10;;;;;;;25.27;38.34;98476.47;5028605;28;20074;-73
2022/06/21 08:16:22;;;;;;;3.03;1.10;;;;;;;25.25;38.67;98457.41;5070253;28;20404;-73
2022/06/21 08:19:17;;;;;;;3.60;1.35;;;;;;;24.32;39.56;98454.66;5067122;28;20409;-73
2022/06/21 08:21:59;;;;;;;3.75;1.20;;;;;;;24.58;39.97;98476.38;5056124;28;20037;-73
2022/06/21 08:24:37;;;;;;;2.03;1.02;;;;;;;24.81;39.64;98483.72;5046982;28;20389;-73
2022/06/21 08:27:05;;;;;;;6.03;1.30;;;;;;;26.20;37.35;98476.94;5063077;28;20033;-73
2022/06/21 08:29:42;;;;;;;3.58;1.20;;;;;;;26.55;36.67;98484.72;5063606;28;20083;-73
2022/06/21 08:32:20;;;;;;;2.13;0.93;;;;;;;28.20;34.34;98499.22;5063960;28;20020;-74
2022/06/21 08:34:48;;;;;;;3.90;1.10;;;;;;;30.11;31.46;98498.56;5064989;28;20119;-73
2022/06/21 08:37:26;;;;;;;2.45;1.00;;;;;;;32.42;29.02;98497.59;5058440;28;20115;-72
2022/06/21 08:40:06;;;;;;;3.78;1.10;;;;;;;33.19;26.76;98507.72;5067742;28;20104;-72
2022/06/21 08:43:09;;;;;;;2.03;1.00;;;;;;;31.56;28.53;98519.28;5054664;28;20023;-75
2022/06/21 08:46:02;;;;;;;3.92;1.00;;;;;;;32.65;27.42;98491.47;5063817;28;20028;-76
2022/06/21 08:48:33;;;;;;;1.80;0.90;;;;;;;32.29;28.27;98491.22;5070678;28;20024;-73
2022/06/21 08:51:20;;;;;;;3.25;1.10;;;;;;;33.33;26.99;98488.47;5059068;28;20020;-75
2022/06/21 08:54:26;;;;;;;2.05;0.95;;;;;;;32.50;27.10;98474.25;5063239;28;20158;-74
2022/06/21 08:57:25;;;;;;;6.57;1.08;;;;;;;32.70;27.28;98474.41;5056083;28;20039;-73
2022/06/21 08:59:53;;;;;;;4.25;0.80;;;;;;;33.23;27.03;98474.19;5047496;28;21293;-74
2022/06/21 09:02:56;;;;;;;2.35;0.85;;;;;;;32.15;27.87;98478.78;5068945;28;20377;-74
2022/06/21 09:05:52;;;;;;;1.92;0.90;;;;;;;31.19;29.77;98492.09;5043131;28;20055;-76
2022/06/21 09:08:48;;;;;;;2.40;1.00;;;;;;;29.90;31.00;98497.75;5061645;28;20028;-72
2022/06/21 09:11:23;;;;;;;2.72;1.30;;;;;;;28.66;32.91;98480.19;5059871;28;20523;-75
2022/06/21 09:14:00;;;;;;;3.50;1.05;;;;;;;27.52;35.05;98469.00;5066827;28;20035;-75
2022/06/21 09:16:42;;;;;;;2.35;1.13;;;;;;;27.11;35.15;98469.31;5066758;28;20070;-75
2022/06/21 09:19:16;;;;;;;2.65;1.00;;;;;;;28.24;34.05;98463.19;5062880;28;20050;-75
2022/06/21 09:21:47;;;;;;;4.88;1.00;;;;;;;29.02;32.19;98460.28;5058699;28;20056;-76
2022/06/21 09:24:31;;;;;;;2.17;1.05;;;;;;;29.28;31.78;98465.75;5056665;28;20095;-71
2022/06/21 09:27:22;;;;;;;2.25;0.90;;;;;;;28.66;32.15;98464.31;5049849;28;20078;-74
2022/06/21 09:30:12;;;;;;;1.17;0.90;;;;;;;29.23;31.72;98460.38;5053543;28;20779;-74
2022/06/21 09:32:56;;;;;;;3.08;1.00;;;;;;;29.65;31.52;98449.34;5048480;28;20024;-73
2022/06/21 09:35:42;;;;;;;3.35;0.95;;;;;;;29.95;31.07;98466.00;5044460;28;20037;-74
2022/06/21 09:38:52;;;;;;;4.20;1.15;;;;;;;30.12;30.88;98466.69;5069937;28;20048;-74
2022/06/21 09:41:38;;;;;;;1.92;0.80;;;;;;;31.67;29.23;98451.34;5064167;28;20016;-73
2022/06/21 09:44:40;;;;;;;3.58;1.38;;;;;;;31.04;29.77;98456.44;5058207;28;20474;-72
2022/06/21 09:47:28;;;;;;;2.83;0.90;;;;;;;31.40;28.49;98460.47;5015599;28;20041;-71
2022/06/21 09:49:59;;;;;;;2.85;0.88;;;;;;;30.61;29.98;98449.38;5060857;28;20060;-74
2022/06/21 09:52:42;;;;;;;2.58;0.75;;;;;;;29.74;30.74;98447.31;5042446;28;20032;-72
2022/06/21 09:55:44;;;;;;;2.42;0.93;;;;;;;28.94;32.43;98459.16;5067094;28;20025;-74
2022/06/21 09:58:27;;;;;;;4.70;1.55;;;;;;;29.01;31.78;98458.66;5062931;28;20074;-73
2022/06/21 10:01:01;;;;;;;5.00;1.20;;;;;;;29.32;31.64;98449.19;5064457;28;20028;-74
2022/06/21 10:03:38;;;;;;;2.40;1.00;;;;;;;30.35;30.09;98444.88;5065992;28;20020;-71
2022/06/21 10:06:43;;;;;;;4.70;1.20;;;;;;;30.52;30.62;98446.69;5060080;28;20136;-71
2022/06/21 10:09:54;;;;;;;3.85;1.15;;;;;;;30.26;30.39;98446.94;5059619;28;20638;-74
2022/06/21 10:12:25;;;;;;;4.90;1.00;;;;;;;30.64;29.65;98451.47;5031635;28;20757;-73
2022/06/21 10:15:06;;;;;;;4.72;1.45;;;;;;;30.00;30.53;98447.13;5059323;28;20029;-73
2022/06/21 10:17:55;;;;;;;3.50;0.90;;;;;;;31.15;29.20;98440.88;5054213;28;20108;-71
2022/06/21 10:20:46;;;;;;;4.93;1.00;;;;;;;32.25;28.22;98439.91;5067950;28;20090;-70
2022/06/21 10:23:30;;;;;;;5.95;1.23;;;;;;;33.09;27.59;98430.59;5065261;28;20041;-72
2022/06/21 10:26:33;;;;;;;3.67;1.10;;;;;;;34.30;25.74;98436.56;5061231;28;20024;-73
2022/06/21 10:29:21;;;;;;;2.00;1.00;;;;;;;33.27;27.10;98428.22;5063182;28;20553;-73
2022/06/21 10:31:47;;;;;;;3.78;1.20;;;;;;;33.03;27.39;98426.44;5056750;28;20125;-74
2022/06/21 10:34:31;;;;;;;3.13;1.10;;;;;;;32.34;28.95;98416.56;5066431;28;20463;-73
2022/06/21 10:37:34;;;;;;;1.55;0.80;;;;;;;32.24;28.50;98406.66;5040875;28;20839;-74
2022/06/21 10:40:18;;;;;;;2.53;0.95;;;;;;;31.58;29.09;98397.53;5053749;28;20174;-74
2022/06/21 10:43:14;;;;;;;5.15;0.90;;;;;;;31.56;29.40;98396.25;5062832;28;20029;-73
2022/06/21 10:45:50;;;;;;;5.03;1.30;;;;;;;32.30;29.05;98394.03;5060844;28;20107;-71
2022/06/21 10:48:46;;;;;;;3.72;1.25;;;;;;;32.86;28.44;98379.94;5054275;28;20041;-72
2022/06/21 10:51:36;;;;;;;3.33;1.25;;;;;;;33.67;27.23;98384.28;5057733;28;20029;-72
2022/06/21 10:54:10;;;;;;;2.47;1.10;;;;;;;33.68;27.21;98378.31;5062425;28;20493;-74
2022/06/21 10:57:14;;;;;;;2.90;1.02;;;;;;;34.89;25.39;98365.84;5056530;28;20082;-72
2022/06/21 11:03:10;;;;;;;1.30;1.00;;;;;;;33.24;27.85;98363.66;5060185;28;20124;-74
2022/06/21 11:06:00;;;;;;;4.18;1.17;;;;;;;34.18;26.36;98361.72;5061229;28;20020;-73
2022/06/21 11:08:59;;;;;;;2.95;1.20;;;;;;;32.95;27.18;98349.75;5063092;28;20487;-74
2022/06/21 11:11:43;;;;;;;2.45;0.90;;;;;;;33.10;28.05;98353.75;5069442;28;20045;-73
2022/06/21 11:14:17;;;;;;;3.25;1.17;;;;;;;33.86;27.55;98352.63;5062711;28;20020;-75
2022/06/21 11:17:01;;;;;;;2.85;0.90;;;;;;;33.99;26.32;98351.28;5065491;28;20025;-75
2022/06/21 11:19:47;;;;;;;2.45;1.20;;;;;;;33.71;27.36;98357.94;5062538;28;20035;-78
2022/06/21 11:22:36;;;;;;;2.65;1.20;;;;;;;34.39;26.50;98345.25;5070292;28;20069;-77
2022/06/21 11:25:34;;;;;;;2.60;1.08;;;;;;;33.74;27.44;98359.19;5048302;28;20036;-76
2022/06/21 11:28:33;;;;;;;4.50;1.13;;;;;;;34.28;26.62;98346.28;5063767;28;20491;-79
2022/06/21 11:31:20;;;;;;;2.00;1.00;;;;;;;34.89;26.64;98353.78;5059971;28;20478;-74
2022/06/21 11:34:06;;;;;;;5.13;1.45;;;;;;;35.09;26.97;98330.03;5063091;28;20029;-72
2022/06/21 11:36:31;;;;;;;5.22;1.13;;;;;;;36.28;25.68;98340.84;5069074;28;20031;-75
2022/06/21 11:39:01;;;;;;;2.92;1.10;;;;;;;36.11;25.66;98344.31;5058121;28;20111;-74
2022/06/21 11:44:51;;;;;;;3.03;1.05;;;;;;;37.18;24.51;98341.69;5060597;28;20592;-76
2022/06/21 11:47:34;;;;;;;3.63;1.10;;;;;;;36.72;25.30;98337.28;5068334;28;20029;-75
2022/06/21 11:50:16;;;;;;;4.10;1.20;;;;;;;34.47;28.78;98332.16;5071777;28;20016;-75
2022/06/21 11:53:02;;;;;;;1.52;0.95;;;;;;;34.82;27.21;98337.63;5066352;28;20028;-75
2022/06/21 11:55:35;;;;;;;1.48;0.90;;;;;;;34.63;27.30;98293.53;5064107;28;20103;-74
2022/06/21 11:58:38;;;;;;;5.15;1.13;;;;;;;33.87;28.01;98312.16;5065371;28;20037;-74
2022/06/21 12:01:09;;;;;;;3.70;1.17;;;;;;;34.16;29.29;98299.50;5067872;28;20028;-75
2022/06/21 12:04:05;;;;;;;2.97;1.13;;;;;;;34.98;27.65;98303.75;5065999;28;20031;-74
2022/06/21 12:06:55;;;;;;;4.10;1.60;;;;;;;34.09;28.88;98297.38;5068557;28;20026;-74
2022/06/21 12:09:33;;;;;;;3.47;1.52;;;;;;;35.16;27.23;98286.34;5059758;28;20397;-72
2022/06/21 12:12:08;;;;;;;2.47;1.20;;;;;;;33.85;29.28;98289.25;5067334;28;20021;-74
2022/06/21 12:14:55;;;;;;;5.43;1.38;;;;;;;32.88;30.76;98287.94;5074975;28;20389;-74
2022/06/21 12:17:30;;;;;;;2.50;1.30;;;;;;;32.83;30.56;98277.00;5067551;28;20039;-74
2022/06/21 12:20:03;;;;;;;2.17;1.10;;;;;;;32.49;30.46;98285.00;5059921;28;20012;-73
2022/06/21 12:22:38;;;;;;;3.15;1.23;;;;;;;32.67;30.24;98287.41;5051240;28;20020;-72
2022/06/21 12:25:04;;;;;;;2.95;1.27;;;;;;;34.60;28.45;98276.63;5068954;28;20056;-73
2022/06/21 12:27:30;;;;;;;3.90;1.52;;;;;;;35.69;27.23;98287.09;5062485;28;20031;-73
2022/06/21 12:30:19;;;;;;;5.70;1.42;;;;;;;35.88;27.11;98288.91;5055511;28;20021;-73